地図

経路データ

SID SEASON NUMBER BASIN SUBBASIN NAME ISO_TIME NATURE LAT LON WMO_WIND WMO_PRES WMO_AGENCY TRACK_TYPE DIST2LAND LANDFALL IFLAG USA_AGENCY USA_ATCF_ID USA_LAT USA_LON USA_RECORD USA_STATUS USA_WIND USA_PRES USA_SSHS USA_R34_NE USA_R34_SE USA_R34_SW USA_R34_NW USA_R50_NE USA_R50_SE USA_R50_SW USA_R50_NW USA_R64_NE USA_R64_SE USA_R64_SW USA_R64_NW USA_POCI USA_ROCI USA_RMW USA_EYE TOKYO_LAT TOKYO_LON TOKYO_GRADE TOKYO_WIND TOKYO_PRES TOKYO_R50_DIR TOKYO_R50_LONG TOKYO_R50_SHORT TOKYO_R30_DIR TOKYO_R30_LONG TOKYO_R30_SHORT TOKYO_LAND CMA_LAT CMA_LON CMA_CAT CMA_WIND CMA_PRES HKO_LAT HKO_LON HKO_CAT HKO_WIND HKO_PRES NEWDELHI_LAT NEWDELHI_LON NEWDELHI_GRADE NEWDELHI_WIND NEWDELHI_PRES NEWDELHI_CI NEWDELHI_DP NEWDELHI_POCI REUNION_LAT REUNION_LON REUNION_TYPE REUNION_WIND REUNION_PRES REUNION_TNUM REUNION_CI REUNION_RMW REUNION_R34_NE REUNION_R34_SE REUNION_R34_SW REUNION_R34_NW REUNION_R50_NE REUNION_R50_SE REUNION_R50_SW REUNION_R50_NW REUNION_R64_NE REUNION_R64_SE REUNION_R64_SW REUNION_R64_NW BOM_LAT BOM_LON BOM_TYPE BOM_WIND BOM_PRES BOM_TNUM BOM_CI BOM_RMW BOM_R34_NE BOM_R34_SE BOM_R34_SW BOM_R34_NW BOM_R50_NE BOM_R50_SE BOM_R50_SW BOM_R50_NW BOM_R64_NE BOM_R64_SE BOM_R64_SW BOM_R64_NW BOM_ROCI BOM_POCI BOM_EYE BOM_POS_METHOD BOM_PRES_METHOD NADI_LAT NADI_LON NADI_CAT NADI_WIND NADI_PRES WELLINGTON_LAT WELLINGTON_LON WELLINGTON_WIND WELLINGTON_PRES DS824_LAT DS824_LON DS824_STAGE DS824_WIND DS824_PRES TD9636_LAT TD9636_LON TD9636_STAGE TD9636_WIND TD9636_PRES TD9635_LAT TD9635_LON TD9635_WIND TD9635_PRES TD9635_ROCI NEUMANN_LAT NEUMANN_LON NEUMANN_CLASS NEUMANN_WIND NEUMANN_PRES MLC_LAT MLC_LON MLC_CLASS MLC_WIND MLC_PRES USA_GUST BOM_GUST BOM_GUST_PER REUNION_GUST REUNION_GUST_PER USA_SEAHGT USA_SEARAD_NE USA_SEARAD_SE USA_SEARAD_SW USA_SEARAD_NW STORM_SPEED STORM_DIR
1859335S05091 1860 29 SI WA NOT_NAMED 1859-12-01 06:00:00 NR -4.60000 90.7000 main 957 957 _____O________ -1 -4.60000 90.7000 99 9.90000 1 265
1859335S05091 1860 29 SI WA NOT_NAMED 1859-12-01 09:00:00 NR -4.60635 90.6269 main 967 967 _____P________ -1 -4.60635 90.6269 99 2 261
1859335S05091 1860 29 SI WA NOT_NAMED 1859-12-01 12:00:00 NR -4.62282 90.5478 main 977 977 _____P________ -1 -4.62282 90.5478 99 2 253
1859335S05091 1860 29 SI WA NOT_NAMED 1859-12-01 15:00:00 NR -4.65950 90.4563 main 982 982 _____P________ -1 -4.65950 90.4563 99 2 243
1859335S05091 1860 29 SI WA NOT_NAMED 1859-12-01 18:00:00 NR -4.72650 90.3465 main 1002 1002 _____P________ -1 -4.72650 90.3465 99 3 234
1859335S05091 1860 29 SI WA NOT_NAMED 1859-12-01 21:00:00 NR -4.83395 90.2122 main 1017 1017 _____P________ -1 -4.83395 90.2122 99 4 228
1859335S05091 1860 29 SI WA NOT_NAMED 1859-12-02 00:00:00 NR -4.99194 90.0472 main 1046 1046 _____P________ -1 -4.99194 90.0472 99 5 224
1859335S05091 1860 29 SI MM NOT_NAMED 1859-12-02 03:00:00 NR -5.21058 89.8452 main 1075 1075 _____P________ -1 -5.21058 89.8452 99 7 221
1859335S05091 1860 29 SI MM NOT_NAMED 1859-12-02 06:00:00 NR -5.50000 89.6000 main 1109 1109 _____O________ -1 -5.50000 89.6000 99 9.90000 9 219
1859335S05091 1860 29 SI MM NOT_NAMED 1859-12-02 09:00:00 NR -5.86700 89.3079 main 1159 1159 _____P________ -1 -5.86700 89.3079 99 10 218
1859335S05091 1860 29 SI MM NOT_NAMED 1859-12-02 12:00:00 NR -6.30531 88.9761 main 1209 1209 _____P________ -1 -6.30531 88.9761 99 12 216
1859335S05091 1860 29 SI MM NOT_NAMED 1859-12-02 15:00:00 NR -6.80536 88.6144 main 1275 1275 _____P________ -1 -6.80536 88.6144 99 13 215
1859335S05091 1860 29 SI MM NOT_NAMED 1859-12-02 18:00:00 NR -7.35763 88.2324 main 1346 1346 _____P________ -1 -7.35763 88.2324 99 14 214
1859335S05091 1860 29 SI MM NOT_NAMED 1859-12-02 21:00:00 NR -7.95261 87.8402 main 1418 1418 _____P________ -1 -7.95261 87.8402 99 15 212
1859335S05091 1860 29 SI MM NOT_NAMED 1859-12-03 00:00:00 NR -8.58086 87.4474 main 1490 1490 _____P________ -1 -8.58086 87.4474 99 15 211
1859335S05091 1860 29 SI MM NOT_NAMED 1859-12-03 03:00:00 NR -9.23306 87.0640 main 1553 1553 _____P________ -1 -9.23306 87.0640 99 15 209
1859335S05091 1860 29 SI MM NOT_NAMED 1859-12-03 06:00:00 NR -9.90000 86.7000 main 1632 1632 _____O________ -1 -9.90000 86.7000 99 9.90000 15 208
1859335S05091 1860 29 SI MM NOT_NAMED 1859-12-03 09:00:00 NR -10.5799 86.3429 main 1713 1713 _____P________ -1 -10.5799 86.3429 99 16 207
1859335S05091 1860 29 SI MM NOT_NAMED 1859-12-03 12:00:00 NR -11.2887 85.9942 main 1785 1785 _____P________ -1 -11.2887 85.9942 99 16 205
1859335S05091 1860 29 SI MM NOT_NAMED 1859-12-03 15:00:00 NR -12.0131 85.6612 main 1858 1858 _____P________ -1 -12.0131 85.6612 99 16 203
1859335S05091 1860 29 SI MM NOT_NAMED 1859-12-03 18:00:00 NR -12.7397 85.3513 main 1932 1932 _____P________ -1 -12.7397 85.3513 99 16 202
1859335S05091 1860 29 SI MM NOT_NAMED 1859-12-03 21:00:00 NR -13.4550 85.0723 main 2014 2014 _____P________ -1 -13.4550 85.0723 99 15 200
1859335S05091 1860 29 SI MM NOT_NAMED 1859-12-04 00:00:00 NR -14.1457 84.8321 main 2082 2082 _____P________ -1 -14.1457 84.8321 99 14 197
1859335S05091 1860 29 SI MM NOT_NAMED 1859-12-04 03:00:00 NR -14.7985 84.6386 main 2149 2149 _____P________ -1 -14.7985 84.6386 99 13 194
1859335S05091 1860 29 SI MM NOT_NAMED 1859-12-04 06:00:00 NR -15.4000 84.5000 main 2203 2203 _____O________ -1 -15.4000 84.5000 99 9.90000 11 191
1859335S05091 1860 29 SI MM NOT_NAMED 1859-12-04 09:00:00 NR -15.9153 84.4158 main 2249 2249 _____P________ -1 -15.9153 84.4158 99 10 186
1859335S05091 1860 29 SI MM NOT_NAMED 1859-12-04 12:00:00 NR -16.3836 84.3870 main 2288 2288 _____P________ -1 -16.3836 84.3870 99 9 182
1859335S05091 1860 29 SI MM NOT_NAMED 1859-12-04 15:00:00 NR -16.8120 84.4069 main 2319 2319 _____P________ -1 -16.8120 84.4069 99 8 174
1859335S05091 1860 29 SI MM NOT_NAMED 1859-12-04 18:00:00 NR -17.2075 84.4689 main 2344 2344 _____P________ -1 -17.2075 84.4689 99 8 169
1859335S05091 1860 29 SI MM NOT_NAMED 1859-12-04 21:00:00 NR -17.5771 84.5661 main 2369 2369 _____P________ -1 -17.5771 84.5661 99 8 164
1859335S05091 1860 29 SI MM NOT_NAMED 1859-12-05 00:00:00 NR -17.9278 84.6916 main 2387 2387 _____P________ -1 -17.9278 84.6916 99 7 159
1859335S05091 1860 29 SI MM NOT_NAMED 1859-12-05 03:00:00 NR -18.2665 84.8386 main 2413 2406 _____P________ -1 -18.2665 84.8386 99 7 156
1859335S05091 1860 29 SI MM NOT_NAMED 1859-12-05 06:00:00 NR -18.6000 85.0000 main 2425 2425 _____O________ -1 -18.6000 85.0000 99 9.90000 8 158
1859335S05091 1860 29 SI MM NOT_NAMED 1859-12-05 09:00:00 NR -18.9858 85.1515 main 2446 2446 _____P________ -1 -18.9858 85.1515 99 8 158
1859335S05091 1860 29 SI MM NOT_NAMED 1859-12-05 12:00:00 NR -19.3641 85.3256 main 2474 2467 _____P________ -1 -19.3641 85.3256 99 8 155
1859335S05091 1860 29 SI MM NOT_NAMED 1859-12-05 15:00:00 NR -19.7318 85.5163 main 2487 2487 _____P________ -1 -19.7318 85.5163 99 8 153
1859335S05091 1860 29 SI MM NOT_NAMED 1859-12-05 18:00:00 NR -20.0856 85.7173 main 2511 2504 _____P________ -1 -20.0856 85.7173 99 8 151
1859335S05091 1860 29 SI MM NOT_NAMED 1859-12-05 21:00:00 NR -20.4225 85.9226 main 2525 2525 _____P________ -1 -20.4225 85.9226 99 8 150
1859335S05091 1860 29 SI MM NOT_NAMED 1859-12-06 00:00:00 NR -20.7392 86.1257 main 2541 2541 _____P________ -1 -20.7392 86.1257 99 7 149
1859335S05091 1860 29 SI MM NOT_NAMED 1859-12-06 03:00:00 NR -21.0328 86.3203 main 2557 2557 _____P________ -1 -21.0328 86.3203 99 7 148
1859335S05091 1860 29 SI MM NOT_NAMED 1859-12-06 06:00:00 NR -21.3000 86.5000 main 2573 2573 _____O________ -1 -21.3000 86.5000 99 9.90000 6 148
1859335S05091 1860 29 SI MM NOT_NAMED 1859-12-06 09:00:00 NR -21.5390 86.6598 main 2581 2581 _____P________ -1 -21.5390 86.6598 99 5 148
1859335S05091 1860 29 SI MM NOT_NAMED 1859-12-06 12:00:00 NR -21.7524 86.8007 main 2593 2584 _____P________ -1 -21.7524 86.8007 99 5 148
1859335S05091 1860 29 SI MM NOT_NAMED 1859-12-06 15:00:00 NR -21.9438 86.9254 main 2591 2590 _____P________ -1 -21.9438 86.9254 99 4 149
1859335S05091 1860 29 SI MM NOT_NAMED 1859-12-06 18:00:00 NR -22.1169 87.0366 main 2597 2589 _____P________ -1 -22.1169 87.0366 99 4 149
1859335S05091 1860 29 SI MM NOT_NAMED 1859-12-06 21:00:00 NR -22.2755 87.1369 main 2603 2595 _____P________ -1 -22.2755 87.1369 99 4 150
1859335S05091 1860 29 SI MM NOT_NAMED 1859-12-07 00:00:00 NR -22.4231 87.2291 main 2602 2601 _____P________ -1 -22.4231 87.2291 99 3 150
1859335S05091 1860 29 SI MM NOT_NAMED 1859-12-07 03:00:00 NR -22.5634 87.3158 main 2608 2601 _____P________ -1 -22.5634 87.3158 99 3 150
1859335S05091 1860 29 SI MM NOT_NAMED 1859-12-07 06:00:00 NR -22.7000 87.4000 main 2608 _____O________ -1 -22.7000 87.4000 99 9.90000 3 150

IBTrACS Databaseについて

本データベースは、米国NOAAが公開する1842年以降の世界の熱帯低気圧のベストトラックデータアーカイブInternational Best Track Archive for Climate Stewardship (IBTrACS)を、ウェブで閲覧しやすい形式に変換したものです。

最終更新日:2021-12-08